createdAt,value
2019-04-28T00:00:06.641Z,55.87
2019-04-28T00:02:40.840Z,52.23
2019-04-28T00:05:12.726Z,51.30
2019-04-28T00:07:44.656Z,49.53
2019-04-28T00:10:16.551Z,48.97
2019-04-28T00:12:48.518Z,41.63
2019-04-28T00:15:20.936Z,48.97
2019-04-28T00:17:53.129Z,44.63
2019-04-28T00:20:36.025Z,51.37
2019-04-28T00:23:18.297Z,52.40
2019-04-28T00:26:01.583Z,49.93
2019-04-28T00:28:34.598Z,50.77
2019-04-28T00:31:06.773Z,46.33
2019-04-28T00:33:38.672Z,55.50
2019-04-28T00:36:11.564Z,51.70
2019-04-28T00:38:43.489Z,51.87
2019-04-28T00:41:15.386Z,58.03
2019-04-28T00:43:47.278Z,43.90
2019-04-28T00:46:21.203Z,49.43
2019-04-28T00:48:53.258Z,48.80
2019-04-28T00:51:25.155Z,50.27
2019-04-28T00:53:57.042Z,52.47
2019-04-28T00:56:28.929Z,52.07
2019-04-28T00:59:01.661Z,52.67
2019-04-28T01:01:48.568Z,55.47
2019-04-28T01:04:21.947Z,51.87
2019-04-28T01:06:54.296Z,51.20
2019-04-28T01:09:26.373Z,49.03
2019-04-28T01:11:58.246Z,59.07
2019-04-28T01:14:30.972Z,59.70
2019-04-28T01:17:09.859Z,54.53
2019-04-28T01:19:43.994Z,61.27
2019-04-28T01:22:20.136Z,46.67
2019-04-28T01:24:52.177Z,44.70
2019-04-28T01:27:50.581Z,54.63
2019-04-28T01:30:50.572Z,54.90
2019-04-28T01:33:56.543Z,54.63
2019-04-28T01:36:30.121Z,53.77
2019-04-28T01:39:02.097Z,53.97
2019-04-28T01:41:36.850Z,48.40
2019-04-28T01:44:10.210Z,43.27
2019-04-28T01:46:42.932Z,43.63
2019-04-28T01:49:14.921Z,51.60
2019-04-28T01:52:00.550Z,51.70
2019-04-28T01:54:32.221Z,51.00
2019-04-28T01:57:04.114Z,58.80
2019-04-28T01:59:35.939Z,49.63
2019-04-28T02:02:09.959Z,50.57
2019-04-28T02:04:41.625Z,50.77
2019-04-28T02:07:13.516Z,49.70
2019-04-28T02:09:45.429Z,60.83
2019-04-28T02:12:17.316Z,50.80
2019-04-28T02:14:52.156Z,52.83
2019-04-28T02:17:24.368Z,54.83
2019-04-28T02:19:56.365Z,58.17
2019-04-28T02:22:47.114Z,54.37
2019-04-28T02:25:19.576Z,48.17
2019-04-28T02:27:52.694Z,45.87
2019-04-28T02:30:40.971Z,49.87
2019-04-28T02:32:58.085Z,39.93
2019-04-28T02:35:31.490Z,42.27
2019-04-28T02:38:03.683Z,36.00
2019-04-28T02:40:35.561Z,34.53
2019-04-28T02:43:07.375Z,35.73
2019-04-28T02:45:41.281Z,32.67
2019-04-28T02:48:21.104Z,33.00
2019-04-28T02:51:01.048Z,31.70
2019-04-28T02:53:35.974Z,31.53
2019-04-28T02:56:07.798Z,25.37
2019-04-28T02:58:41.518Z,28.67
2019-04-28T03:01:22.793Z,22.37
2019-04-28T03:03:46.782Z,26.70
2019-04-28T03:06:20.726Z,35.00
2019-04-28T03:08:52.159Z,24.80
2019-04-28T03:11:24.373Z,20.13
2019-04-28T03:13:56.451Z,23.03
2019-04-28T03:16:30.026Z,23.60
2019-04-28T03:19:02.915Z,26.57
2019-04-28T03:21:34.937Z,22.93
2019-04-28T03:24:06.811Z,19.43
2019-04-28T03:26:52.401Z,22.27
2019-04-28T03:29:36.658Z,21.43
2019-04-28T03:32:32.334Z,16.60
2019-04-28T03:34:53.896Z,19.30
2019-04-28T03:37:24.589Z,18.67
2019-04-28T03:39:56.547Z,17.53
2019-04-28T03:42:31.153Z,21.13
2019-04-28T03:45:03.632Z,16.43
2019-04-28T03:47:35.519Z,20.90
2019-04-28T03:50:10.235Z,16.40
2019-04-28T03:52:41.636Z,19.83
2019-04-28T03:55:13.607Z,16.80
2019-04-28T03:57:45.477Z,13.90
2019-04-28T04:00:17.285Z,15.67
2019-04-28T04:02:50.770Z,13.80
2019-04-28T04:05:23.122Z,14.13
2019-04-28T04:07:55.012Z,11.33
2019-04-28T04:10:40.297Z,12.87
2019-04-28T04:13:16.278Z,11.53
2019-04-28T04:16:24.850Z,16.83
2019-04-28T04:19:00.522Z,10.30
2019-04-28T04:21:31.604Z,10.37
2019-04-28T04:24:03.620Z,11.80
2019-04-28T04:26:35.506Z,12.27
2019-04-28T04:29:07.377Z,18.63
2019-04-28T04:31:41.344Z,8.83
2019-04-28T04:34:12.771Z,9.17
2019-04-28T04:36:44.670Z,7.23
2019-04-28T04:39:16.455Z,11.07
2019-04-28T04:41:50.394Z,7.20
2019-04-28T04:44:21.900Z,6.37
2019-04-28T04:46:53.772Z,8.47
2019-04-28T04:49:25.646Z,8.17
2019-04-28T04:51:59.924Z,9.43
2019-04-28T04:54:36.577Z,6.03
2019-04-28T04:57:06.683Z,5.10
2019-04-28T04:59:40.112Z,4.50
2019-04-28T05:02:37.230Z,5.37
2019-04-28T05:05:22.219Z,5.10
2019-04-28T05:07:54.373Z,8.77
2019-04-28T05:10:26.403Z,5.97
2019-04-28T05:12:59.904Z,7.53
2019-04-28T05:15:31.795Z,5.17
2019-04-28T05:18:03.796Z,4.73
2019-04-28T05:20:35.607Z,4.90
2019-04-28T05:23:16.791Z,3.40
2019-04-28T05:25:49.723Z,3.77
2019-04-28T05:28:21.706Z,6.67
2019-04-28T05:30:53.645Z,46.43
2019-04-28T05:33:32.024Z,5.50
2019-04-28T05:36:03.155Z,5.07
2019-04-28T05:38:35.083Z,5.07
2019-04-28T05:41:06.975Z,3.97
2019-04-28T05:43:40.410Z,5.57
2019-04-28T05:46:12.480Z,5.23
2019-04-28T05:48:51.279Z,5.37
2019-04-28T05:51:24.602Z,4.93
2019-04-28T05:54:03.885Z,6.63
2019-04-28T05:56:43.199Z,6.30
2019-04-28T05:59:19.328Z,11.10
2019-04-28T06:02:02.353Z,5.50
2019-04-28T06:04:34.229Z,6.00
2019-04-28T06:07:13.653Z,12.20
2019-04-28T06:09:50.097Z,8.20
2019-04-28T06:12:22.246Z,7.50
2019-04-28T06:14:54.334Z,6.90
2019-04-28T06:17:26.363Z,8.53
2019-04-28T06:20:00.068Z,8.67
2019-04-28T06:22:31.775Z,9.33
2019-04-28T06:25:03.676Z,8.37
2019-04-28T06:27:35.604Z,8.27
2019-04-28T06:30:08.055Z,10.47
2019-04-28T06:32:39.945Z,9.60
2019-04-28T06:35:11.799Z,13.93
2019-04-28T06:37:43.674Z,8.63
2019-04-28T06:40:15.508Z,8.70
2019-04-28T06:42:47.412Z,9.00
2019-04-28T06:45:19.259Z,10.70
2019-04-28T06:47:51.816Z,10.20
2019-04-28T06:50:23.664Z,8.93
2019-04-28T06:52:55.474Z,12.87
2019-04-28T06:55:27.829Z,12.97
2019-04-28T06:57:59.732Z,12.67
2019-04-28T07:00:31.950Z,102.90
2019-04-28T07:03:04.154Z,13.40
2019-04-28T07:05:36.063Z,9.77
2019-04-28T07:08:07.951Z,9.40
2019-04-28T07:10:39.828Z,10.10
2019-04-28T07:13:11.757Z,17.37
2019-04-28T07:15:44.641Z,11.07
2019-04-28T07:18:16.539Z,11.23
2019-04-28T07:20:57.292Z,9.47
2019-04-28T07:23:29.312Z,8.60
2019-04-28T07:26:01.134Z,9.30
2019-04-28T07:28:32.997Z,8.30
2019-04-28T07:31:04.956Z,11.27
2019-04-28T07:33:36.853Z,9.47
2019-04-28T07:36:08.770Z,11.60
2019-04-28T07:38:40.657Z,11.23
2019-04-28T07:41:12.519Z,11.30
2019-04-28T07:43:44.399Z,7.77
2019-04-28T07:46:16.204Z,7.90
2019-04-28T07:48:48.090Z,8.13
2019-04-28T07:51:22.181Z,17.63
2019-04-28T07:53:57.880Z,8.17
2019-04-28T07:56:29.701Z,9.57
2019-04-28T07:59:01.722Z,11.47
2019-04-28T08:01:33.660Z,13.80
2019-04-28T08:04:05.961Z,11.17
2019-04-28T08:06:37.835Z,18.13
2019-04-28T08:09:13.096Z,12.37
2019-04-28T08:11:47.226Z,8.73
2019-04-28T08:14:19.833Z,9.23
2019-04-28T08:16:53.210Z,10.47
2019-04-28T08:19:25.605Z,14.33
2019-04-28T08:21:57.410Z,10.70
2019-04-28T08:24:29.361Z,8.10
2019-04-28T08:27:01.241Z,9.43
2019-04-28T08:29:33.229Z,9.30
2019-04-28T08:32:24.623Z,9.17
2019-04-28T08:34:56.551Z,11.30
2019-04-28T08:37:28.337Z,6.90
2019-04-28T08:40:00.167Z,8.17
2019-04-28T08:42:32.010Z,8.53
2019-04-28T08:45:04.044Z,7.50
2019-04-28T08:47:36.101Z,8.07
2019-04-28T08:50:08.034Z,7.40
2019-04-28T08:52:39.981Z,7.97
2019-04-28T08:55:11.941Z,9.17
2019-04-28T08:57:45.631Z,7.80
2019-04-28T09:00:18.210Z,9.40
2019-04-28T09:02:50.102Z,9.57
2019-04-28T09:05:22.051Z,9.60
2019-04-28T09:07:53.972Z,8.80
2019-04-28T09:10:25.813Z,8.87
2019-04-28T09:12:57.700Z,9.03
2019-04-28T09:15:29.561Z,11.63
2019-04-28T09:18:02.708Z,102.90
2019-04-28T09:20:34.836Z,11.63
2019-04-28T09:23:06.712Z,10.63
2019-04-28T09:25:40.818Z,10.80
2019-04-28T09:28:14.507Z,8.40
2019-04-28T09:30:46.659Z,13.80
2019-04-28T09:33:19.159Z,11.73
2019-04-28T09:35:52.056Z,9.67
2019-04-28T09:38:24.715Z,48.27
2019-04-28T09:40:56.841Z,9.07
2019-04-28T09:43:46.581Z,6.73
2019-04-28T09:46:27.937Z,10.27
2019-04-28T09:49:00.048Z,11.07
2019-04-28T09:51:33.600Z,9.40
2019-04-28T09:54:05.747Z,7.10
2019-04-28T09:56:37.610Z,8.90
2019-04-28T09:59:09.481Z,10.07
2019-04-28T10:01:41.357Z,9.20
2019-04-28T10:04:13.226Z,8.20
2019-04-28T10:06:45.086Z,8.27
2019-04-28T10:09:16.890Z,8.57
2019-04-28T10:11:48.763Z,10.93
2019-04-28T10:14:20.727Z,7.00
2019-04-28T10:16:52.581Z,9.67
2019-04-28T10:19:24.426Z,44.30
2019-04-28T10:21:56.285Z,7.47
2019-04-28T10:24:28.255Z,25.07
2019-04-28T10:27:00.370Z,65.50
2019-04-28T10:29:33.286Z,8.13
2019-04-28T10:32:05.148Z,8.97
2019-04-28T10:34:37.022Z,9.30
2019-04-28T10:37:08.895Z,7.87
2019-04-28T10:39:55.574Z,7.20
2019-04-28T10:42:27.433Z,7.23
2019-04-28T10:45:00.213Z,6.80
2019-04-28T10:47:32.575Z,9.67
2019-04-28T10:50:04.825Z,8.33
2019-04-28T10:52:36.840Z,9.37
2019-04-28T10:55:08.709Z,12.43
2019-04-28T10:57:40.589Z,7.37
2019-04-28T11:00:13.386Z,9.90
2019-04-28T11:02:45.316Z,10.20
2019-04-28T11:05:31.750Z,8.30
2019-04-28T11:08:05.852Z,9.03
2019-04-28T11:10:37.745Z,8.57
2019-04-28T11:13:11.125Z,9.30
2019-04-28T11:15:43.193Z,5.57
2019-04-28T11:18:15.916Z,10.40
2019-04-28T11:20:47.759Z,7.73
2019-04-28T11:23:19.763Z,7.57
2019-04-28T11:25:52.450Z,13.70
2019-04-28T11:28:24.389Z,7.37
2019-04-28T11:30:56.423Z,9.37
2019-04-28T11:33:52.686Z,9.23
2019-04-28T11:36:24.532Z,6.90
2019-04-28T11:38:56.399Z,7.37
2019-04-28T11:41:28.388Z,6.47
2019-04-28T11:44:00.196Z,5.50
2019-04-28T11:46:31.979Z,4.90
2019-04-28T11:49:03.776Z,6.67
2019-04-28T11:51:35.545Z,5.47
2019-04-28T11:54:07.420Z,12.07
2019-04-28T11:56:41.523Z,7.20
2019-04-28T11:59:12.875Z,5.07
2019-04-28T12:01:44.659Z,7.93
2019-04-28T12:04:17.907Z,10.93
2019-04-28T12:06:49.783Z,9.77
2019-04-28T12:09:43.910Z,7.57
2019-04-28T12:12:41.436Z,16.67
2019-04-28T12:15:32.148Z,7.83
2019-04-28T12:18:37.836Z,7.93
2019-04-28T12:21:10.677Z,7.30
2019-04-28T12:23:42.530Z,5.37
2019-04-28T12:26:14.336Z,9.70
2019-04-28T12:28:46.184Z,7.33
2019-04-28T12:31:18.141Z,17.37
2019-04-28T12:33:50.251Z,14.33
2019-04-28T12:36:22.201Z,6.90
2019-04-28T12:38:54.313Z,8.17
2019-04-28T12:41:26.175Z,6.63
2019-04-28T12:43:58.093Z,9.93
2019-04-28T12:46:29.953Z,11.90
2019-04-28T12:49:06.074Z,31.33
2019-04-28T12:51:37.894Z,11.90
2019-04-28T12:54:11.447Z,23.27
2019-04-28T12:56:43.313Z,11.27
2019-04-28T12:59:21.951Z,17.53
2019-04-28T13:02:05.025Z,31.03
2019-04-28T13:04:43.195Z,20.83
2019-04-28T13:07:15.468Z,24.63
2019-04-28T13:09:48.611Z,6.83
2019-04-28T13:12:21.778Z,13.43
2019-04-28T13:14:54.555Z,6.13
2019-04-28T13:17:27.092Z,5.93
2019-04-28T13:20:00.722Z,55.13
2019-04-28T13:22:34.028Z,4.97
2019-04-28T13:25:07.347Z,8.40
2019-04-28T13:27:40.910Z,14.00
2019-04-28T13:30:13.762Z,7.43
2019-04-28T13:32:46.426Z,38.57
2019-04-28T13:35:21.598Z,5.80
2019-04-28T13:37:54.124Z,9.40
2019-04-28T13:40:30.933Z,5.47
2019-04-28T13:43:03.430Z,4.67
2019-04-28T13:45:36.125Z,10.37
2019-04-28T13:48:08.168Z,7.57
2019-04-28T13:50:43.123Z,10.13
2019-04-28T13:53:16.187Z,35.20
2019-04-28T13:56:07.055Z,11.20
2019-04-28T13:59:02.932Z,5.30
2019-04-28T14:01:46.607Z,4.60
2019-04-28T14:04:31.096Z,12.13
2019-04-28T14:07:07.450Z,5.13
2019-04-28T14:09:39.397Z,5.00
2019-04-28T14:12:11.605Z,15.63
2019-04-28T14:14:43.803Z,5.83
2019-04-28T14:17:16.089Z,10.30
2019-04-28T14:19:48.093Z,13.80
2019-04-28T14:22:19.999Z,7.67
2019-04-28T14:24:52.142Z,5.90
2019-04-28T14:27:24.205Z,6.00
2019-04-28T14:29:56.088Z,5.43
2019-04-28T14:32:28.041Z,6.13
2019-04-28T14:35:00.083Z,3.23
2019-04-28T14:37:33.285Z,5.80
2019-04-28T14:40:05.998Z,4.80
2019-04-28T14:42:37.849Z,5.10
2019-04-28T14:45:10.021Z,7.27
2019-04-28T14:47:42.035Z,9.23
2019-04-28T14:50:14.195Z,7.73
2019-04-28T14:52:46.101Z,13.23
2019-04-28T14:55:19.321Z,12.57
2019-04-28T14:57:52.535Z,16.03
2019-04-28T15:00:30.666Z,3.87
2019-04-28T15:03:06.779Z,8.00
2019-04-28T15:05:57.021Z,10.93
2019-04-28T15:08:46.342Z,6.47
2019-04-28T15:11:43.258Z,6.57
2019-04-28T15:14:15.126Z,7.57
2019-04-28T15:16:46.977Z,9.07
2019-04-28T15:19:18.976Z,7.83
2019-04-28T15:21:51.065Z,24.13
2019-04-28T15:24:23.271Z,6.10
2019-04-28T15:26:56.284Z,5.17
2019-04-28T15:29:28.262Z,10.80
2019-04-28T15:32:00.206Z,11.67
2019-04-28T15:34:32.196Z,17.33
2019-04-28T15:37:10.176Z,8.93
2019-04-28T15:39:37.691Z,19.53
2019-04-28T15:42:09.610Z,43.80
2019-04-28T15:44:41.569Z,48.43
2019-04-28T15:47:13.732Z,35.70
2019-04-28T15:49:45.912Z,16.13
2019-04-28T15:52:17.840Z,11.20
2019-04-28T15:54:49.725Z,31.00
2019-04-28T15:57:21.949Z,35.97
2019-04-28T15:59:54.198Z,23.37
2019-04-28T16:02:27.926Z,12.93
2019-04-28T16:05:00.164Z,15.53
2019-04-28T16:07:32.031Z,14.57
2019-04-28T16:10:03.952Z,17.20
2019-04-28T16:12:35.842Z,9.37
2019-04-28T16:15:07.841Z,13.30
2019-04-28T16:17:39.716Z,12.30
2019-04-28T16:20:11.715Z,15.50
2019-04-28T16:22:43.832Z,86.83
2019-04-28T16:25:15.648Z,149.47
2019-04-28T16:27:47.541Z,134.90
2019-04-28T16:30:19.428Z,84.53
2019-04-28T16:32:51.318Z,38.73
2019-04-28T16:35:23.202Z,27.60
2019-04-28T16:37:55.288Z,52.93
2019-04-28T16:40:33.399Z,18.40
2019-04-28T16:43:14.808Z,18.57
2019-04-28T16:45:46.684Z,22.33
2019-04-28T16:48:18.573Z,29.97
2019-04-28T16:50:50.365Z,22.87
2019-04-28T16:53:22.560Z,47.23
2019-04-28T16:56:16.452Z,107.33
2019-04-28T16:59:06.030Z,96.27
2019-04-28T17:02:09.262Z,90.77
2019-04-28T17:04:41.328Z,16.77
2019-04-28T17:07:13.228Z,23.63
2019-04-28T17:09:45.328Z,15.33
2019-04-28T17:12:17.243Z,16.50
2019-04-28T17:14:49.257Z,15.33
2019-04-28T17:17:21.150Z,20.43
2019-04-28T17:19:53.077Z,10.67
2019-04-28T17:22:24.989Z,12.40
2019-04-28T17:24:56.861Z,8.63
2019-04-28T17:27:28.740Z,12.07
2019-04-28T17:30:00.625Z,11.63
2019-04-28T17:32:32.827Z,10.53
2019-04-28T17:35:04.995Z,10.30
2019-04-28T17:37:36.906Z,9.77
2019-04-28T17:40:08.921Z,11.63
2019-04-28T17:42:40.852Z,11.63
2019-04-28T17:45:12.876Z,9.23
2019-04-28T17:47:45.508Z,8.37
2019-04-28T17:50:19.038Z,10.97
2019-04-28T17:52:50.905Z,16.63
2019-04-28T17:55:23.103Z,9.63
2019-04-28T17:57:55.025Z,13.93
2019-04-28T18:00:39.444Z,12.70
2019-04-28T18:03:36.042Z,16.93
2019-04-28T18:06:17.871Z,14.97
2019-04-28T18:08:47.928Z,11.57
2019-04-28T18:11:19.851Z,10.17
2019-04-28T18:13:51.972Z,18.27
2019-04-28T18:16:44.231Z,10.03
2019-04-28T18:19:16.339Z,11.90
2019-04-28T18:21:48.282Z,15.50
2019-04-28T18:24:20.179Z,17.17
2019-04-28T18:26:52.508Z,12.53
2019-04-28T18:29:24.423Z,14.53
2019-04-28T18:32:13.828Z,13.43
2019-04-28T18:34:53.982Z,22.63
2019-04-28T18:37:45.031Z,14.17
2019-04-28T18:40:39.273Z,7.40
2019-04-28T18:43:21.734Z,11.13
2019-04-28T18:45:53.898Z,12.37
2019-04-28T18:48:26.678Z,12.03
2019-04-28T18:50:58.607Z,10.07
2019-04-28T18:53:30.497Z,14.00
2019-04-28T18:56:02.324Z,15.57
2019-04-28T18:58:34.300Z,9.97
2019-04-28T19:01:19.133Z,10.20
2019-04-28T19:03:51.017Z,9.67
2019-04-28T19:06:23.286Z,12.30
2019-04-28T19:09:00.239Z,12.60
2019-04-28T19:11:41.317Z,14.90
2019-04-28T19:14:18.433Z,8.67
2019-04-28T19:17:04.829Z,12.83
2019-04-28T19:19:38.928Z,11.47
2019-04-28T19:22:11.185Z,7.73
2019-04-28T19:24:43.164Z,8.33
2019-04-28T19:27:15.160Z,21.50
2019-04-28T19:29:47.057Z,19.03
2019-04-28T19:32:19.126Z,38.67
2019-04-28T19:34:51.182Z,17.40
2019-04-28T19:37:23.277Z,40.07
2019-04-28T19:39:55.351Z,44.77
2019-04-28T19:42:27.676Z,29.40
2019-04-28T19:44:59.679Z,13.80
2019-04-28T19:47:31.602Z,12.43
2019-04-28T19:50:03.626Z,30.77
2019-04-28T19:52:39.871Z,12.50
2019-04-28T19:55:18.228Z,14.90
2019-04-28T19:58:11.781Z,8.57
2019-04-28T20:00:56.316Z,13.30
2019-04-28T20:03:28.332Z,13.70
2019-04-28T20:06:00.239Z,7.40
2019-04-28T20:08:32.179Z,16.40
2019-04-28T20:11:04.080Z,21.33
2019-04-28T20:13:36.005Z,8.63
2019-04-28T20:16:08.015Z,14.67
2019-04-28T20:18:40.425Z,8.80
2019-04-28T20:21:12.361Z,7.67
2019-04-28T20:23:44.500Z,14.57
2019-04-28T20:26:16.509Z,9.83
2019-04-28T20:28:48.463Z,18.30
2019-04-28T20:31:20.413Z,11.40
2019-04-28T20:33:52.568Z,7.80
2019-04-28T20:36:46.403Z,10.83
2019-04-28T20:39:26.552Z,8.27
2019-04-28T20:42:17.635Z,7.33
2019-04-28T20:44:49.913Z,10.83
2019-04-28T20:47:22.119Z,9.20
2019-04-28T20:49:55.142Z,9.70
2019-04-28T20:52:27.095Z,7.00
2019-04-28T20:54:59.121Z,7.93
2019-04-28T20:57:31.115Z,8.63
2019-04-28T21:00:05.165Z,8.20
2019-04-28T21:02:38.672Z,5.57
2019-04-28T21:05:10.550Z,10.57
2019-04-28T21:07:42.541Z,8.90
2019-04-28T21:10:14.678Z,5.83
2019-04-28T21:12:46.868Z,6.63
2019-04-28T21:15:19.782Z,7.83
2019-04-28T21:17:51.689Z,10.00
2019-04-28T21:20:23.724Z,7.90
2019-04-28T21:22:56.062Z,8.17
2019-04-28T21:25:27.911Z,10.23
2019-04-28T21:28:00.015Z,8.03
2019-04-28T21:30:31.957Z,7.33
2019-04-28T21:33:03.938Z,8.10
2019-04-28T21:35:35.808Z,7.40
2019-04-28T21:38:07.683Z,8.93
2019-04-28T21:40:40.813Z,8.97
2019-04-28T21:43:31.581Z,8.23
2019-04-28T21:46:24.331Z,12.77
2019-04-28T21:49:05.272Z,8.87
2019-04-28T21:51:37.135Z,11.00
2019-04-28T21:54:09.021Z,10.90
2019-04-28T21:56:40.899Z,11.40
2019-04-28T21:59:12.794Z,10.63
2019-04-28T22:01:44.779Z,10.83
2019-04-28T22:04:16.636Z,14.30
2019-04-28T22:06:48.520Z,11.63
2019-04-28T22:09:21.430Z,10.70
2019-04-28T22:11:53.302Z,12.50
2019-04-28T22:14:25.169Z,9.73
2019-04-28T22:16:57.051Z,8.90
2019-04-28T22:19:28.935Z,8.93
2019-04-28T22:22:00.807Z,10.57
2019-04-28T22:24:51.794Z,12.90
2019-04-28T22:27:28.668Z,10.33
2019-04-28T22:30:00.530Z,11.43
2019-04-28T22:32:33.492Z,10.57
2019-04-28T22:35:05.582Z,11.20
2019-04-28T22:37:37.451Z,10.83
2019-04-28T22:40:13.439Z,13.23
2019-04-28T22:42:45.315Z,11.80
2019-04-28T22:45:17.375Z,14.30
2019-04-28T22:47:49.349Z,10.73
2019-04-28T22:50:40.245Z,12.67
2019-04-28T22:53:12.711Z,14.27
2019-04-28T22:55:52.685Z,11.57
2019-04-28T22:58:42.630Z,9.83
2019-04-28T23:01:21.606Z,10.87
2019-04-28T23:03:58.447Z,11.00
2019-04-28T23:06:30.321Z,12.03
2019-04-28T23:09:02.318Z,14.50
2019-04-28T23:11:35.713Z,12.13
2019-04-28T23:14:07.583Z,11.30
2019-04-28T23:16:39.393Z,12.80
2019-04-28T23:19:13.499Z,12.30
2019-04-28T23:22:10.289Z,13.90
2019-04-28T23:24:42.176Z,12.80
2019-04-28T23:27:14.042Z,12.40
2019-04-28T23:29:45.924Z,11.03
2019-04-28T23:32:17.795Z,11.63
2019-04-28T23:34:49.600Z,11.03
2019-04-28T23:37:21.424Z,11.00
2019-04-28T23:39:53.279Z,12.10
2019-04-28T23:42:48.833Z,15.10
2019-04-28T23:45:20.712Z,15.00
2019-04-28T23:47:53.494Z,13.83
2019-04-28T23:50:34.694Z,14.37
2019-04-28T23:53:09.914Z,14.30
2019-04-28T23:55:41.771Z,12.40
2019-04-28T23:58:14.659Z,16.73
